Terminal Aerodrome Forecast
Issued by NWS

Home | Current Version | Previous Version | Text Only | Print | Product List | Glossary On
Versions: 1 2 3 4 5 6 7 8 9 10 11 12 13 14
038
FTUS46 KHNX 101720
TAFBFL
TAF
KBFL 101720Z 1018/1118 30005KT P6SM SKC
     FM110900 09003KT 4SM HZ BR SKC
     FM111300 VRB03KT P6SM SCT250=

USA.gov is the U.S. government's official web portal to all federal, state and local government web resources and services.